QFA079 YMML-YSSY
Flight info
| Callsign | QFA079 |
|---|---|
| Flight time | 1h 12m |
| Altitude | 37000 |
| Route | ML H129 DOSEL Y59 RIVET |
| Aircraft | A20N/M-SDE2E3FGHIRWXY/LB1 |
Departure
| Time | 2026-05-01 09:30 |
|---|---|
| Airport | Melbourne Airport (YMML) |
Arrival
| Time | 2026-05-01 10:42 |
|---|---|
| Airport | Sydney Kingsford Smith International Airport (YSSY) |
| Time | Latitude | Longitude | Altitude | Speed | Heading |
|---|---|---|---|---|---|
| 2026-05-01 08:45 | -37.67135 | 144.84540 | 395 ft | 0 kts | 351° |
| 2026-05-01 09:16 | -37.67130 | 144.84539 | 392 ft | 0 kts | 352° |
| 2026-05-01 09:17 | -37.67152 | 144.84543 | 394 ft | 6 kts | 351° |
| 2026-05-01 09:17 | -37.67193 | 144.84553 | 393 ft | 2 kts | 341° |
| 2026-05-01 09:17 | -37.67198 | 144.84555 | 394 ft | 2 kts | 339° |
| 2026-05-01 09:18 | -37.67228 | 144.84574 | 393 ft | 7 kts | 322° |
| 2026-05-01 09:18 | -37.67225 | 144.84570 | 393 ft | 0 kts | 316° |
| 2026-05-01 09:19 | -37.67218 | 144.84561 | 393 ft | 7 kts | 311° |
| 2026-05-01 09:19 | -37.67192 | 144.84478 | 392 ft | 12 kts | 278° |
| 2026-05-01 09:20 | -37.67229 | 144.84289 | 388 ft | 8 kts | 226° |
| 2026-05-01 09:20 | -37.67261 | 144.84260 | 387 ft | 1 kts | 210° |
| 2026-05-01 09:21 | -37.67264 | 144.84258 | 387 ft | 0 kts | 210° |
| 2026-05-01 09:21 | -37.67263 | 144.84259 | 387 ft | 0 kts | 210° |
| 2026-05-01 09:21 | -37.67255 | 144.84264 | 387 ft | 1 kts | 206° |
| 2026-05-01 09:22 | -37.67246 | 144.84269 | 387 ft | 1 kts | 200° |
| 2026-05-01 09:22 | -37.67232 | 144.84275 | 388 ft | 1 kts | 193° |
| 2026-05-01 09:23 | -37.67255 | 144.84273 | 387 ft | 10 kts | 180° |
| 2026-05-01 09:23 | -37.67455 | 144.84320 | 380 ft | 19 kts | 171° |
| 2026-05-01 09:24 | -37.67688 | 144.84361 | 373 ft | 17 kts | 172° |
| 2026-05-01 09:24 | -37.67795 | 144.84357 | 372 ft | 11 kts | 201° |
| 2026-05-01 09:24 | -37.67857 | 144.84263 | 370 ft | 2 kts | 257° |
| 2026-05-01 09:25 | -37.67867 | 144.84184 | 366 ft | 7 kts | 264° |
| 2026-05-01 09:25 | -37.67871 | 144.84131 | 365 ft | 0 kts | 265° |
| 2026-05-01 09:26 | -37.67871 | 144.84129 | 365 ft | 0 kts | 265° |
| 2026-05-01 09:26 | -37.67871 | 144.84128 | 365 ft | 0 kts | 265° |
| 2026-05-01 09:27 | -37.67870 | 144.84051 | 368 ft | 12 kts | 285° |
| 2026-05-01 09:28 | -37.67818 | 144.83967 | 368 ft | 12 kts | 328° |
| 2026-05-01 09:28 | -37.67789 | 144.83953 | 368 ft | 0 kts | 344° |
| 2026-05-01 09:29 | -37.67731 | 144.83936 | 375 ft | 39 kts | 349° |
| 2026-05-01 09:29 | -37.67105 | 144.83821 | 399 ft | 146 kts | 351° |
| 2026-05-01 09:30 | -37.64462 | 144.83346 | 1712 ft | 231 kts | 351° |
| 2026-05-01 09:30 | -37.62742 | 144.83002 | 2335 ft | 266 kts | 350° |
| 2026-05-01 09:30 | -37.59275 | 144.82579 | 4244 ft | 210 kts | 7° |
| 2026-05-01 09:31 | -37.57977 | 144.83023 | 4742 ft | 185 kts | 21° |
| 2026-05-01 09:31 | -37.56805 | 144.83673 | 4970 ft | 183 kts | 25° |
| 2026-05-01 09:31 | -37.54513 | 144.85070 | 5002 ft | 183 kts | 25° |
| 2026-05-01 09:32 | -37.53366 | 144.85773 | 5001 ft | 183 kts | 25° |
| 2026-05-01 09:32 | -37.51067 | 144.87172 | 5000 ft | 183 kts | 25° |
| 2026-05-01 09:32 | -37.49923 | 144.87865 | 5145 ft | 182 kts | 25° |
| 2026-05-01 09:33 | -37.48760 | 144.88569 | 5984 ft | 187 kts | 25° |
| 2026-05-01 09:33 | -37.47596 | 144.89273 | 7233 ft | 184 kts | 25° |
| 2026-05-01 09:33 | -37.45303 | 144.90726 | 9477 ft | 188 kts | 30° |
| 2026-05-01 09:34 | -37.44205 | 144.91647 | 10501 ft | 192 kts | 37° |
| 2026-05-01 09:34 | -37.43188 | 144.92766 | 11506 ft | 196 kts | 45° |
| 2026-05-01 09:34 | -37.41460 | 144.95487 | 13444 ft | 202 kts | 54° |
| 2026-05-01 09:35 | -37.40646 | 144.96947 | 14374 ft | 206 kts | 54° |
| 2026-05-01 09:35 | -37.38976 | 144.99943 | 16132 ft | 212 kts | 54° |
| 2026-05-01 09:35 | -37.38116 | 145.01475 | 16982 ft | 216 kts | 54° |
| 2026-05-01 09:36 | -37.37246 | 145.03021 | 17821 ft | 219 kts | 54° |
| 2026-05-01 09:36 | -37.36358 | 145.04593 | 18652 ft | 222 kts | 54° |
| 2026-05-01 09:36 | -37.35457 | 145.06187 | 19464 ft | 225 kts | 54° |
| 2026-05-01 09:36 | -37.34546 | 145.07797 | 20259 ft | 228 kts | 53° |
| 2026-05-01 09:37 | -37.33620 | 145.09434 | 21029 ft | 231 kts | 54° |
| 2026-05-01 09:37 | -37.31732 | 145.12767 | 22480 ft | 237 kts | 54° |
| 2026-05-01 09:37 | -37.30772 | 145.14466 | 23174 ft | 240 kts | 54° |
| 2026-05-01 09:38 | -37.28810 | 145.17920 | 24474 ft | 246 kts | 53° |
| 2026-05-01 09:38 | -37.27821 | 145.19652 | 25089 ft | 248 kts | 53° |
| 2026-05-01 09:38 | -37.26808 | 145.21427 | 25694 ft | 251 kts | 53° |
| 2026-05-01 09:39 | -37.24757 | 145.25028 | 26837 ft | 257 kts | 53° |
| 2026-05-01 09:39 | -37.23713 | 145.26861 | 27370 ft | 260 kts | 53° |
| 2026-05-01 09:39 | -37.22655 | 145.28718 | 27894 ft | 263 kts | 53° |
| 2026-05-01 09:40 | -37.21586 | 145.30594 | 28398 ft | 266 kts | 53° |
| 2026-05-01 09:40 | -37.19413 | 145.34413 | 29379 ft | 272 kts | 54° |
| 2026-05-01 09:40 | -37.18310 | 145.36354 | 29850 ft | 274 kts | 54° |
| 2026-05-01 09:41 | -37.17002 | 145.38100 | 30265 ft | 277 kts | 32° |
| 2026-05-01 09:41 | -37.13281 | 145.39236 | 31061 ft | 284 kts | 2° |
| 2026-05-01 09:41 | -37.11266 | 145.39355 | 31278 ft | 295 kts | 2° |
| 2026-05-01 09:42 | -37.09173 | 145.39458 | 31501 ft | 307 kts | 2° |
| 2026-05-01 09:42 | -37.07003 | 145.39562 | 31721 ft | 318 kts | 2° |
| 2026-05-01 09:42 | -37.02410 | 145.39776 | 32161 ft | 341 kts | 2° |
| 2026-05-01 09:43 | -36.97523 | 145.40002 | 32578 ft | 362 kts | 1° |
| 2026-05-01 09:43 | -36.94973 | 145.40119 | 32780 ft | 372 kts | 1° |
| 2026-05-01 09:43 | -36.92347 | 145.40247 | 32976 ft | 381 kts | 1° |
| 2026-05-01 09:44 | -36.86966 | 145.40770 | 33344 ft | 400 kts | 11° |
| 2026-05-01 09:44 | -36.84261 | 145.41733 | 33510 ft | 409 kts | 21° |
| 2026-05-01 09:44 | -36.81719 | 145.43390 | 33668 ft | 418 kts | 34° |
| 2026-05-01 09:45 | -36.79493 | 145.45772 | 33823 ft | 427 kts | 47° |
| 2026-05-01 09:45 | -36.76276 | 145.52140 | 34150 ft | 442 kts | 63° |
| 2026-05-01 09:45 | -36.74967 | 145.55637 | 34316 ft | 449 kts | 65° |
| 2026-05-01 09:46 | -36.73710 | 145.59229 | 34655 ft | 451 kts | 66° |
| 2026-05-01 09:46 | -36.72482 | 145.62788 | 35331 ft | 444 kts | 66° |
| 2026-05-01 09:46 | -36.71256 | 145.66304 | 35917 ft | 439 kts | 66° |
| 2026-05-01 09:46 | -36.70021 | 145.69776 | 36368 ft | 438 kts | 65° |
| 2026-05-01 09:47 | -36.68769 | 145.73239 | 36735 ft | 438 kts | 65° |
| 2026-05-01 09:47 | -36.67499 | 145.76701 | 36970 ft | 441 kts | 65° |
| 2026-05-01 09:47 | -36.64932 | 145.83629 | 37001 ft | 439 kts | 65° |
| 2026-05-01 09:48 | -36.62375 | 145.90495 | 37000 ft | 439 kts | 65° |
| 2026-05-01 09:48 | -36.59799 | 145.97404 | 37000 ft | 439 kts | 65° |
| 2026-05-01 09:49 | -36.57224 | 146.04305 | 37000 ft | 439 kts | 65° |
| 2026-05-01 09:49 | -36.54647 | 146.11198 | 37000 ft | 439 kts | 65° |
| 2026-05-01 09:50 | -36.52069 | 146.18075 | 37000 ft | 439 kts | 65° |
| 2026-05-01 09:50 | -36.49485 | 146.24955 | 37001 ft | 439 kts | 64° |
| 2026-05-01 09:51 | -36.47004 | 146.31546 | 37000 ft | 439 kts | 64° |
| 2026-05-01 09:51 | -36.44413 | 146.38416 | 37000 ft | 439 kts | 64° |
| 2026-05-01 09:52 | -36.41817 | 146.45284 | 37000 ft | 439 kts | 64° |
| 2026-05-01 09:52 | -36.39218 | 146.52144 | 37000 ft | 439 kts | 64° |
| 2026-05-01 09:53 | -36.36612 | 146.59006 | 37000 ft | 440 kts | 64° |
| 2026-05-01 09:53 | -36.34008 | 146.65862 | 37001 ft | 440 kts | 64° |
| 2026-05-01 09:54 | -36.31388 | 146.72740 | 37000 ft | 441 kts | 64° |
| 2026-05-01 09:54 | -36.28764 | 146.79609 | 36995 ft | 440 kts | 64° |
| 2026-05-01 09:55 | -36.26131 | 146.86483 | 37000 ft | 442 kts | 64° |
| 2026-05-01 09:55 | -36.23488 | 146.93357 | 37000 ft | 441 kts | 64° |
| 2026-05-01 09:56 | -36.20869 | 147.00157 | 37000 ft | 439 kts | 64° |
| 2026-05-01 09:56 | -36.18100 | 147.06896 | 37000 ft | 439 kts | 57° |
| 2026-05-01 09:57 | -36.14618 | 147.13095 | 37001 ft | 439 kts | 53° |
| 2026-05-01 09:57 | -36.10969 | 147.19171 | 37001 ft | 440 kts | 53° |
| 2026-05-01 09:58 | -36.07284 | 147.25214 | 37000 ft | 440 kts | 52° |
| 2026-05-01 09:58 | -36.03590 | 147.31272 | 37000 ft | 440 kts | 52° |
| 2026-05-01 09:59 | -35.99863 | 147.37399 | 37001 ft | 453 kts | 52° |
| 2026-05-01 09:59 | -35.96088 | 147.43612 | 36999 ft | 452 kts | 52° |
| 2026-05-01 10:00 | -35.92319 | 147.49806 | 37000 ft | 451 kts | 52° |
| 2026-05-01 10:00 | -35.88562 | 147.55971 | 37000 ft | 452 kts | 52° |
| 2026-05-01 10:01 | -35.84779 | 147.62169 | 37001 ft | 453 kts | 52° |
| 2026-05-01 10:01 | -35.80982 | 147.68378 | 37000 ft | 452 kts | 52° |
| 2026-05-01 10:02 | -35.77191 | 147.74568 | 37000 ft | 452 kts | 52° |
| 2026-05-01 10:02 | -35.73422 | 147.80719 | 37000 ft | 452 kts | 52° |
| 2026-05-01 10:03 | -35.69624 | 147.86901 | 37001 ft | 453 kts | 52° |
| 2026-05-01 10:03 | -35.65814 | 147.93088 | 37000 ft | 453 kts | 52° |
| 2026-05-01 10:04 | -35.62009 | 147.99264 | 36999 ft | 453 kts | 52° |
| 2026-05-01 10:04 | -35.58168 | 148.05419 | 37001 ft | 455 kts | 51° |
| 2026-05-01 10:05 | -35.54309 | 148.11589 | 37000 ft | 455 kts | 52° |
| 2026-05-01 10:05 | -35.50487 | 148.17793 | 37000 ft | 455 kts | 52° |
| 2026-05-01 10:06 | -35.47308 | 148.22913 | 36998 ft | 453 kts | 52° |
| 2026-05-01 10:06 | -35.45398 | 148.25982 | 36682 ft | 450 kts | 52° |
| 2026-05-01 10:06 | -35.43503 | 148.29023 | 35930 ft | 450 kts | 52° |
| 2026-05-01 10:07 | -35.41595 | 148.32080 | 35055 ft | 452 kts | 52° |
| 2026-05-01 10:07 | -35.39670 | 148.35158 | 34067 ft | 457 kts | 52° |
| 2026-05-01 10:07 | -35.37735 | 148.38252 | 33106 ft | 460 kts | 52° |
| 2026-05-01 10:07 | -35.35785 | 148.41368 | 32149 ft | 461 kts | 52° |
| 2026-05-01 10:08 | -35.31873 | 148.47615 | 30087 ft | 464 kts | 52° |
| 2026-05-01 10:08 | -35.29913 | 148.50744 | 29239 ft | 462 kts | 52° |
| 2026-05-01 10:08 | -35.27962 | 148.53857 | 28484 ft | 456 kts | 52° |
| 2026-05-01 10:09 | -35.26040 | 148.56922 | 27729 ft | 450 kts | 52° |
| 2026-05-01 10:09 | -35.24167 | 148.59904 | 26996 ft | 445 kts | 52° |
| 2026-05-01 10:09 | -35.22268 | 148.62927 | 26236 ft | 440 kts | 52° |
| 2026-05-01 10:09 | -35.20441 | 148.65832 | 25542 ft | 434 kts | 52° |
| 2026-05-01 10:10 | -35.18600 | 148.68756 | 25122 ft | 432 kts | 52° |
| 2026-05-01 10:10 | -35.16766 | 148.71661 | 25006 ft | 431 kts | 51° |
| 2026-05-01 10:10 | -35.13104 | 148.77454 | 25000 ft | 430 kts | 51° |
| 2026-05-01 10:11 | -35.11276 | 148.80347 | 24996 ft | 430 kts | 52° |
| 2026-05-01 10:11 | -35.09448 | 148.83241 | 24995 ft | 429 kts | 52° |
| 2026-05-01 10:11 | -35.07627 | 148.86124 | 25004 ft | 429 kts | 52° |
| 2026-05-01 10:11 | -35.05800 | 148.89012 | 25004 ft | 429 kts | 52° |
| 2026-05-01 10:12 | -35.03978 | 148.91889 | 24998 ft | 428 kts | 52° |
| 2026-05-01 10:12 | -35.02151 | 148.94769 | 25004 ft | 428 kts | 51° |
| 2026-05-01 10:12 | -34.98527 | 149.00475 | 24998 ft | 428 kts | 51° |
| 2026-05-01 10:13 | -34.96699 | 149.03349 | 25003 ft | 429 kts | 51° |
| 2026-05-01 10:13 | -34.94870 | 149.06222 | 25001 ft | 429 kts | 51° |
| 2026-05-01 10:13 | -34.93046 | 149.09085 | 25002 ft | 429 kts | 51° |
| 2026-05-01 10:14 | -34.89380 | 149.14832 | 25000 ft | 429 kts | 51° |
| 2026-05-01 10:14 | -34.87552 | 149.17694 | 25005 ft | 429 kts | 51° |
| 2026-05-01 10:14 | -34.85769 | 149.20484 | 25001 ft | 429 kts | 51° |
| 2026-05-01 10:14 | -34.83937 | 149.23348 | 25000 ft | 429 kts | 51° |
| 2026-05-01 10:15 | -34.82099 | 149.26215 | 25005 ft | 429 kts | 51° |
| 2026-05-01 10:15 | -34.80260 | 149.29081 | 25001 ft | 429 kts | 51° |
| 2026-05-01 10:15 | -34.78449 | 149.31902 | 24999 ft | 429 kts | 51° |
| 2026-05-01 10:15 | -34.76613 | 149.34761 | 25001 ft | 429 kts | 51° |
| 2026-05-01 10:16 | -34.74806 | 149.37648 | 24998 ft | 429 kts | 54° |
| 2026-05-01 10:16 | -34.73227 | 149.40732 | 24996 ft | 430 kts | 59° |
| 2026-05-01 10:16 | -34.70335 | 149.47104 | 25005 ft | 430 kts | 60° |
| 2026-05-01 10:17 | -34.68938 | 149.50315 | 25003 ft | 430 kts | 62° |
| 2026-05-01 10:17 | -34.66190 | 149.56777 | 25004 ft | 430 kts | 62° |
| 2026-05-01 10:17 | -34.64803 | 149.59990 | 24995 ft | 430 kts | 62° |
| 2026-05-01 10:18 | -34.62024 | 149.66373 | 25004 ft | 430 kts | 62° |
| 2026-05-01 10:18 | -34.60627 | 149.69583 | 24996 ft | 430 kts | 62° |
| 2026-05-01 10:18 | -34.59226 | 149.72793 | 25004 ft | 430 kts | 62° |
| 2026-05-01 10:19 | -34.57825 | 149.75995 | 25005 ft | 430 kts | 62° |
| 2026-05-01 10:19 | -34.56419 | 149.79197 | 25001 ft | 430 kts | 62° |
| 2026-05-01 10:19 | -34.55008 | 149.82405 | 25001 ft | 430 kts | 62° |
| 2026-05-01 10:20 | -34.52209 | 149.88748 | 24473 ft | 421 kts | 62° |
| 2026-05-01 10:20 | -34.50831 | 149.91872 | 23630 ft | 418 kts | 62° |
| 2026-05-01 10:20 | -34.49462 | 149.94971 | 22824 ft | 415 kts | 62° |
| 2026-05-01 10:20 | -34.48105 | 149.98041 | 22045 ft | 411 kts | 62° |
| 2026-05-01 10:21 | -34.46762 | 150.01074 | 21283 ft | 406 kts | 62° |
| 2026-05-01 10:21 | -34.44121 | 150.07034 | 19668 ft | 398 kts | 62° |
| 2026-05-01 10:21 | -34.42809 | 150.09990 | 18591 ft | 400 kts | 62° |
| 2026-05-01 10:22 | -34.40162 | 150.15947 | 16395 ft | 402 kts | 62° |
| 2026-05-01 10:22 | -34.37519 | 150.21885 | 14197 ft | 398 kts | 62° |
| 2026-05-01 10:23 | -34.36209 | 150.24825 | 13100 ft | 395 kts | 62° |
| 2026-05-01 10:23 | -34.33622 | 150.30622 | 11000 ft | 386 kts | 61° |
| 2026-05-01 10:23 | -34.32382 | 150.33399 | 10352 ft | 372 kts | 61° |
| 2026-05-01 10:24 | -34.30054 | 150.38603 | 9994 ft | 336 kts | 61° |
| 2026-05-01 10:24 | -34.27873 | 150.43477 | 10002 ft | 325 kts | 61° |
| 2026-05-01 10:25 | -34.25723 | 150.48284 | 10004 ft | 324 kts | 61° |
| 2026-05-01 10:25 | -34.23575 | 150.53083 | 9998 ft | 324 kts | 61° |
| 2026-05-01 10:26 | -34.22504 | 150.55477 | 10008 ft | 324 kts | 61° |
| 2026-05-01 10:26 | -34.21430 | 150.57874 | 9999 ft | 324 kts | 61° |
| 2026-05-01 10:26 | -34.19360 | 150.62488 | 9990 ft | 295 kts | 61° |
| 2026-05-01 10:27 | -34.17446 | 150.66749 | 9999 ft | 287 kts | 61° |
| 2026-05-01 10:27 | -34.15539 | 150.70989 | 9999 ft | 287 kts | 61° |
| 2026-05-01 10:28 | -34.14588 | 150.73100 | 9993 ft | 280 kts | 61° |
| 2026-05-01 10:28 | -34.12832 | 150.76996 | 9897 ft | 254 kts | 61° |
| 2026-05-01 10:28 | -34.11991 | 150.78858 | 9540 ft | 252 kts | 61° |
| 2026-05-01 10:29 | -34.10311 | 150.82572 | 8761 ft | 251 kts | 61° |
| 2026-05-01 10:29 | -34.09476 | 150.84424 | 8385 ft | 250 kts | 61° |
| 2026-05-01 10:30 | -34.07872 | 150.87987 | 7833 ft | 240 kts | 61° |
| 2026-05-01 10:30 | -34.06300 | 150.91477 | 7192 ft | 237 kts | 61° |
| 2026-05-01 10:31 | -34.04730 | 150.94961 | 6532 ft | 235 kts | 61° |
| 2026-05-01 10:31 | -34.03372 | 150.98502 | 5909 ft | 233 kts | 77° |
| 2026-05-01 10:32 | -34.03827 | 151.02256 | 5256 ft | 230 kts | 121° |
| 2026-05-01 10:32 | -34.04804 | 151.03786 | 4871 ft | 231 kts | 132° |
| 2026-05-01 10:32 | -34.07112 | 151.06651 | 3834 ft | 243 kts | 138° |
| 2026-05-01 10:33 | -34.10131 | 151.08351 | 3042 ft | 238 kts | 167° |
| 2026-05-01 10:33 | -34.13169 | 151.09120 | 2984 ft | 208 kts | 169° |
| 2026-05-01 10:34 | -34.14537 | 151.09455 | 2983 ft | 193 kts | 169° |
| 2026-05-01 10:34 | -34.15828 | 151.09777 | 2996 ft | 188 kts | 169° |
| 2026-05-01 10:34 | -34.17110 | 151.10101 | 2999 ft | 188 kts | 168° |
| 2026-05-01 10:35 | -34.19666 | 151.10790 | 2999 ft | 188 kts | 163° |
| 2026-05-01 10:35 | -34.20830 | 151.11446 | 2999 ft | 188 kts | 146° |
| 2026-05-01 10:35 | -34.21747 | 151.12567 | 2991 ft | 189 kts | 117° |
| 2026-05-01 10:35 | -34.22019 | 151.14096 | 3005 ft | 188 kts | 90° |
| 2026-05-01 10:36 | -34.21782 | 151.17257 | 3001 ft | 190 kts | 83° |
| 2026-05-01 10:36 | -34.21609 | 151.18837 | 2999 ft | 190 kts | 76° |
| 2026-05-01 10:36 | -34.20949 | 151.20171 | 2999 ft | 186 kts | 39° |
| 2026-05-01 10:37 | -34.19849 | 151.20990 | 3003 ft | 187 kts | 25° |
| 2026-05-01 10:37 | -34.17481 | 151.22281 | 3001 ft | 188 kts | 23° |
| 2026-05-01 10:37 | -34.16252 | 151.22813 | 2994 ft | 188 kts | 7° |
| 2026-05-01 10:38 | -34.14955 | 151.22900 | 3002 ft | 187 kts | 359° |
| 2026-05-01 10:38 | -34.13656 | 151.22784 | 2999 ft | 187 kts | 345° |
| 2026-05-01 10:38 | -34.12414 | 151.22353 | 3033 ft | 183 kts | 344° |
| 2026-05-01 10:38 | -34.11181 | 151.21991 | 2973 ft | 182 kts | 347° |
| 2026-05-01 10:39 | -34.09945 | 151.21669 | 2756 ft | 182 kts | 347° |
| 2026-05-01 10:39 | -34.08712 | 151.21343 | 2488 ft | 181 kts | 347° |
| 2026-05-01 10:39 | -34.07483 | 151.21015 | 2243 ft | 179 kts | 347° |
| 2026-05-01 10:39 | -34.06262 | 151.20690 | 1987 ft | 180 kts | 347° |
| 2026-05-01 10:40 | -34.05054 | 151.20370 | 1749 ft | 180 kts | 347° |
| 2026-05-01 10:40 | -34.03834 | 151.20046 | 1519 ft | 179 kts | 347° |
| 2026-05-01 10:40 | -34.02622 | 151.19722 | 1282 ft | 178 kts | 346° |
| 2026-05-01 10:40 | -34.01412 | 151.19400 | 1039 ft | 178 kts | 346° |
| 2026-05-01 10:41 | -34.00203 | 151.19080 | 803 ft | 177 kts | 346° |
| 2026-05-01 10:41 | -33.99042 | 151.18773 | 577 ft | 177 kts | 346° |
| 2026-05-01 10:41 | -33.96646 | 151.18139 | 109 ft | 176 kts | 346° |
| 2026-05-01 10:42 | -33.95497 | 151.17838 | 26 ft | 155 kts | 348° |
| 2026-05-01 10:42 | -33.94674 | 151.17608 | 27 ft | 72 kts | 347° |
| 2026-05-01 10:42 | -33.94488 | 151.17517 | 27 ft | 13 kts | 322° |
| 2026-05-01 10:42 | -33.94420 | 151.17451 | 28 ft | 12 kts | 320° |
| 2026-05-01 10:43 | -33.94408 | 151.17439 | 28 ft | 2 kts | 322° |
| 2026-05-01 10:43 | -33.94385 | 151.17418 | 28 ft | 12 kts | 318° |
| 2026-05-01 10:43 | -33.94300 | 151.17327 | 27 ft | 0 kts | 324° |
| 2026-05-01 10:43 | -33.94300 | 151.17326 | 27 ft | 1 kts | 324° |
| 2026-05-01 10:44 | -33.94284 | 151.17313 | 27 ft | 0 kts | 326° |
| 2026-05-01 10:44 | -33.94290 | 151.17318 | 27 ft | 2 kts | 327° |
| 2026-05-01 10:44 | -33.94306 | 151.17331 | 28 ft | 3 kts | 321° |
| 2026-05-01 10:45 | -33.94328 | 151.17354 | 28 ft | 5 kts | 313° |
| 2026-05-01 10:45 | -33.94323 | 151.17341 | 28 ft | 7 kts | 297° |
| 2026-05-01 10:45 | -33.94316 | 151.17321 | 28 ft | 0 kts | 291° |
| 2026-05-01 10:45 | -33.94319 | 151.17329 | 28 ft | 2 kts | 289° |
| 2026-05-01 10:46 | -33.94322 | 151.17342 | 28 ft | 2 kts | 283° |
| 2026-05-01 10:46 | -33.94324 | 151.17351 | 28 ft | 6 kts | 276° |
| 2026-05-01 10:46 | -33.94333 | 151.17284 | 28 ft | 5 kts | 252° |
| 2026-05-01 10:46 | -33.94339 | 151.17262 | 28 ft | 3 kts | 250° |
| 2026-05-01 10:47 | -33.94348 | 151.17233 | 28 ft | 4 kts | 251° |
| 2026-05-01 10:47 | -33.94359 | 151.17193 | 29 ft | 6 kts | 252° |
| 2026-05-01 10:47 | -33.94374 | 151.17136 | 28 ft | 9 kts | 252° |
| 2026-05-01 10:47 | -33.94401 | 151.17063 | 27 ft | 11 kts | 238° |
| 2026-05-01 10:48 | -33.94435 | 151.16992 | 29 ft | 8 kts | 242° |
| 2026-05-01 10:48 | -33.94439 | 151.16982 | 26 ft | 2 kts | 247° |
| 2026-05-01 10:48 | -33.94444 | 151.16963 | 29 ft | 2 kts | 256° |
| 2026-05-01 10:48 | -33.94446 | 151.16942 | 28 ft | 6 kts | 266° |
| 2026-05-01 10:49 | -33.94441 | 151.16910 | 30 ft | 0 kts | 287° |
| 2026-05-01 10:49 | -33.94444 | 151.16919 | 28 ft | 1 kts | 291° |
| 2026-05-01 10:49 | -33.94448 | 151.16932 | 27 ft | 3 kts | 297° |
| 2026-05-01 10:49 | -33.94445 | 151.16929 | 27 ft | 6 kts | 309° |
| 2026-05-01 10:50 | -33.94441 | 151.16924 | 30 ft | 1 kts | 311° |
| 2026-05-01 10:50 | -33.94434 | 151.16916 | 28 ft | 2 kts | 316° |
| 2026-05-01 10:50 | -33.94431 | 151.16912 | 28 ft | 0 kts | 317° |
| 2026-05-01 10:50 | -33.94440 | 151.16922 | 29 ft | 1 kts | 323° |
| 2026-05-01 10:51 | -33.94446 | 151.16928 | 28 ft | 3 kts | 324° |
| 2026-05-01 10:51 | -33.94472 | 151.16949 | 28 ft | 6 kts | 329° |
| 2026-05-01 10:51 | -33.94517 | 151.16974 | 27 ft | 7 kts | 343° |
| 2026-05-01 10:52 | -33.94532 | 151.16979 | 27 ft | 0 kts | 345° |